sensor_id;sensor_type;location;lat;lon;timestamp;P1;durP1;ratioP1;P2;durP2;ratioP2
7557;SDS011;3820;51.098;13.716;2022-12-18T00:01:17;13.23;;;4.53;;
7557;SDS011;3820;51.098;13.716;2022-12-18T00:03:46;4.10;;;3.90;;
7557;SDS011;3820;51.098;13.716;2022-12-18T00:06:12;9.10;;;3.43;;
7557;SDS011;3820;51.098;13.716;2022-12-18T00:08:40;4.20;;;3.80;;
7557;SDS011;3820;51.098;13.716;2022-12-18T00:11:08;5.17;;;4.70;;
7557;SDS011;3820;51.098;13.716;2022-12-18T00:13:36;6.20;;;4.57;;
7557;SDS011;3820;51.098;13.716;2022-12-18T00:16:04;4.77;;;4.37;;
7557;SDS011;3820;51.098;13.716;2022-12-18T00:18:33;9.00;;;4.70;;
7557;SDS011;3820;51.098;13.716;2022-12-18T00:21:02;5.40;;;5.00;;
7557;SDS011;3820;51.098;13.716;2022-12-18T00:23:30;11.57;;;7.23;;
7557;SDS011;3820;51.098;13.716;2022-12-18T00:25:58;12.20;;;5.77;;
7557;SDS011;3820;51.098;13.716;2022-12-18T00:28:27;11.70;;;5.30;;
7557;SDS011;3820;51.098;13.716;2022-12-18T00:31:03;3.87;;;3.60;;
7557;SDS011;3820;51.098;13.716;2022-12-18T00:33:31;4.10;;;3.80;;
7557;SDS011;3820;51.098;13.716;2022-12-18T00:36:06;10.90;;;4.17;;
7557;SDS011;3820;51.098;13.716;2022-12-18T00:38:36;4.80;;;4.07;;
7557;SDS011;3820;51.098;13.716;2022-12-18T00:41:03;4.70;;;4.30;;
7557;SDS011;3820;51.098;13.716;2022-12-18T00:43:33;9.77;;;5.33;;
7557;SDS011;3820;51.098;13.716;2022-12-18T00:46:01;4.73;;;4.33;;
7557;SDS011;3820;51.098;13.716;2022-12-18T00:48:28;9.77;;;5.73;;
7557;SDS011;3820;51.098;13.716;2022-12-18T00:50:56;4.80;;;4.40;;
7557;SDS011;3820;51.098;13.716;2022-12-18T00:53:22;3.53;;;3.33;;
7557;SDS011;3820;51.098;13.716;2022-12-18T00:55:49;8.83;;;4.77;;
7557;SDS011;3820;51.098;13.716;2022-12-18T00:58:16;5.03;;;4.63;;
7557;SDS011;3820;51.098;13.716;2022-12-18T01:00:44;6.63;;;4.47;;
7557;SDS011;3820;51.098;13.716;2022-12-18T01:03:14;4.20;;;3.80;;
7557;SDS011;3820;51.098;13.716;2022-12-18T01:05:41;6.17;;;4.93;;
7557;SDS011;3820;51.098;13.716;2022-12-18T01:08:08;7.60;;;4.67;;
7557;SDS011;3820;51.098;13.716;2022-12-18T01:10:35;4.23;;;3.90;;
7557;SDS011;3820;51.098;13.716;2022-12-18T01:13:01;5.30;;;3.47;;
7557;SDS011;3820;51.098;13.716;2022-12-18T01:15:28;6.53;;;5.43;;
7557;SDS011;3820;51.098;13.716;2022-12-18T01:17:54;3.20;;;2.93;;
7557;SDS011;3820;51.098;13.716;2022-12-18T01:20:21;11.73;;;4.70;;
7557;SDS011;3820;51.098;13.716;2022-12-18T01:22:47;7.13;;;5.10;;
7557;SDS011;3820;51.098;13.716;2022-12-18T01:25:14;10.70;;;5.87;;
7557;SDS011;3820;51.098;13.716;2022-12-18T01:27:41;4.27;;;3.97;;
7557;SDS011;3820;51.098;13.716;2022-12-18T01:30:07;9.23;;;4.13;;
7557;SDS011;3820;51.098;13.716;2022-12-18T01:32:34;8.87;;;4.90;;
7557;SDS011;3820;51.098;13.716;2022-12-18T01:35:01;4.97;;;3.80;;
7557;SDS011;3820;51.098;13.716;2022-12-18T01:37:28;7.90;;;4.97;;
7557;SDS011;3820;51.098;13.716;2022-12-18T01:39:54;7.90;;;5.83;;
7557;SDS011;3820;51.098;13.716;2022-12-18T01:42:21;4.07;;;3.87;;
7557;SDS011;3820;51.098;13.716;2022-12-18T01:50:10;3.80;;;3.53;;
7557;SDS011;3820;51.098;13.716;2022-12-18T01:52:41;4.53;;;3.50;;
7557;SDS011;3820;51.098;13.716;2022-12-18T01:55:09;9.53;;;6.13;;
7557;SDS011;3820;51.098;13.716;2022-12-18T01:57:37;4.90;;;4.50;;
7557;SDS011;3820;51.098;13.716;2022-12-18T02:00:06;5.03;;;4.63;;
7557;SDS011;3820;51.098;13.716;2022-12-18T02:02:34;9.07;;;5.13;;
7557;SDS011;3820;51.098;13.716;2022-12-18T02:05:02;4.90;;;4.50;;
7557;SDS011;3820;51.098;13.716;2022-12-18T02:07:32;4.97;;;3.97;;
7557;SDS011;3820;51.098;13.716;2022-12-18T02:12:47;4.93;;;4.43;;
7557;SDS011;3820;51.098;13.716;2022-12-18T02:18:09;4.10;;;3.90;;
7557;SDS011;3820;51.098;13.716;2022-12-18T02:20:43;4.57;;;4.13;;
7557;SDS011;3820;51.098;13.716;2022-12-18T02:23:28;4.33;;;4.03;;
7557;SDS011;3820;51.098;13.716;2022-12-18T02:26:06;3.40;;;3.20;;
7557;SDS011;3820;51.098;13.716;2022-12-18T02:28:40;3.17;;;2.97;;
7557;SDS011;3820;51.098;13.716;2022-12-18T02:31:11;6.73;;;4.80;;
7557;SDS011;3820;51.098;13.716;2022-12-18T02:33:41;3.57;;;3.27;;
7557;SDS011;3820;51.098;13.716;2022-12-18T02:36:09;7.13;;;5.47;;
7557;SDS011;3820;51.098;13.716;2022-12-18T02:38:36;7.30;;;3.90;;
7557;SDS011;3820;51.098;13.716;2022-12-18T02:41:03;4.20;;;3.90;;
7557;SDS011;3820;51.098;13.716;2022-12-18T02:43:30;4.40;;;4.00;;
7557;SDS011;3820;51.098;13.716;2022-12-18T02:45:58;4.33;;;4.07;;
7557;SDS011;3820;51.098;13.716;2022-12-18T02:48:31;4.13;;;3.90;;
7557;SDS011;3820;51.098;13.716;2022-12-18T02:51:03;15.93;;;4.43;;
7557;SDS011;3820;51.098;13.716;2022-12-18T02:53:45;5.97;;;4.57;;
7557;SDS011;3820;51.098;13.716;2022-12-18T02:56:25;3.23;;;3.13;;
7557;SDS011;3820;51.098;13.716;2022-12-18T02:58:59;4.80;;;3.37;;
7557;SDS011;3820;51.098;13.716;2022-12-18T03:01:42;3.87;;;3.20;;
7557;SDS011;3820;51.098;13.716;2022-12-18T03:07:11;4.00;;;3.60;;
7557;SDS011;3820;51.098;13.716;2022-12-18T03:09:43;3.53;;;3.07;;
7557;SDS011;3820;51.098;13.716;2022-12-18T03:12:18;3.30;;;3.17;;
7557;SDS011;3820;51.098;13.716;2022-12-18T03:15:12;4.30;;;3.30;;
7557;SDS011;3820;51.098;13.716;2022-12-18T03:17:45;6.97;;;3.63;;
7557;SDS011;3820;51.098;13.716;2022-12-18T03:20:14;4.57;;;4.17;;
7557;SDS011;3820;51.098;13.716;2022-12-18T03:22:43;3.87;;;3.37;;
7557;SDS011;3820;51.098;13.716;2022-12-18T03:25:12;11.47;;;3.87;;
7557;SDS011;3820;51.098;13.716;2022-12-18T03:27:41;4.33;;;3.93;;
7557;SDS011;3820;51.098;13.716;2022-12-18T03:30:11;4.50;;;3.93;;
7557;SDS011;3820;51.098;13.716;2022-12-18T03:32:40;3.33;;;3.10;;
7557;SDS011;3820;51.098;13.716;2022-12-18T03:35:11;3.40;;;3.20;;
7557;SDS011;3820;51.098;13.716;2022-12-18T03:37:39;2.90;;;2.80;;
7557;SDS011;3820;51.098;13.716;2022-12-18T03:40:06;3.90;;;3.10;;
7557;SDS011;3820;51.098;13.716;2022-12-18T03:42:45;5.43;;;3.57;;
7557;SDS011;3820;51.098;13.716;2022-12-18T03:50:36;3.60;;;3.33;;
7557;SDS011;3820;51.098;13.716;2022-12-18T03:56:02;3.97;;;3.67;;
7557;SDS011;3820;51.098;13.716;2022-12-18T03:58:31;3.00;;;2.80;;
7557;SDS011;3820;51.098;13.716;2022-12-18T04:01:00;3.60;;;3.10;;
7557;SDS011;3820;51.098;13.716;2022-12-18T04:03:28;3.33;;;3.00;;
7557;SDS011;3820;51.098;13.716;2022-12-18T04:10:20;2.43;;;2.33;;
7557;SDS011;3820;51.098;13.716;2022-12-18T04:12:47;3.20;;;2.90;;
7557;SDS011;3820;51.098;13.716;2022-12-18T04:15:14;7.00;;;3.03;;
7557;SDS011;3820;51.098;13.716;2022-12-18T04:17:43;3.40;;;3.13;;
7557;SDS011;3820;51.098;13.716;2022-12-18T04:20:14;2.70;;;2.60;;
7557;SDS011;3820;51.098;13.716;2022-12-18T04:22:41;4.57;;;3.67;;
7557;SDS011;3820;51.098;13.716;2022-12-18T04:25:08;2.70;;;2.50;;
7557;SDS011;3820;51.098;13.716;2022-12-18T04:27:34;3.30;;;3.03;;
7557;SDS011;3820;51.098;13.716;2022-12-18T04:30:01;4.30;;;3.90;;
7557;SDS011;3820;51.098;13.716;2022-12-18T04:32:28;3.63;;;3.30;;
7557;SDS011;3820;51.098;13.716;2022-12-18T04:34:55;3.93;;;3.63;;
7557;SDS011;3820;51.098;13.716;2022-12-18T04:37:21;4.83;;;3.67;;
7557;SDS011;3820;51.098;13.716;2022-12-18T04:39:48;4.50;;;3.63;;
7557;SDS011;3820;51.098;13.716;2022-12-18T04:42:14;4.77;;;4.30;;
7557;SDS011;3820;51.098;13.716;2022-12-18T04:44:41;7.03;;;2.80;;
7557;SDS011;3820;51.098;13.716;2022-12-18T04:47:07;4.80;;;3.03;;
7557;SDS011;3820;51.098;13.716;2022-12-18T04:49:34;5.03;;;3.20;;
7557;SDS011;3820;51.098;13.716;2022-12-18T04:52:00;8.67;;;3.73;;
7557;SDS011;3820;51.098;13.716;2022-12-18T04:54:27;3.17;;;3.03;;
7557;SDS011;3820;51.098;13.716;2022-12-18T04:56:53;2.63;;;2.50;;
7557;SDS011;3820;51.098;13.716;2022-12-18T04:59:20;2.93;;;2.83;;
7557;SDS011;3820;51.098;13.716;2022-12-18T05:01:47;2.93;;;2.63;;
7557;SDS011;3820;51.098;13.716;2022-12-18T05:04:14;4.23;;;3.70;;
7557;SDS011;3820;51.098;13.716;2022-12-18T05:06:40;4.27;;;3.97;;
7557;SDS011;3820;51.098;13.716;2022-12-18T05:09:07;4.17;;;3.87;;
7557;SDS011;3820;51.098;13.716;2022-12-18T05:11:34;2.70;;;2.37;;
7557;SDS011;3820;51.098;13.716;2022-12-18T05:14:01;6.23;;;3.40;;
7557;SDS011;3820;51.098;13.716;2022-12-18T05:16:28;4.10;;;2.83;;
7557;SDS011;3820;51.098;13.716;2022-12-18T05:18:54;3.53;;;3.40;;
7557;SDS011;3820;51.098;13.716;2022-12-18T05:21:21;4.83;;;3.30;;
7557;SDS011;3820;51.098;13.716;2022-12-18T05:23:47;15.80;;;3.67;;
7557;SDS011;3820;51.098;13.716;2022-12-18T05:26:15;3.13;;;2.93;;
7557;SDS011;3820;51.098;13.716;2022-12-18T05:28:43;4.50;;;4.20;;
7557;SDS011;3820;51.098;13.716;2022-12-18T05:31:10;4.57;;;4.17;;
7557;SDS011;3820;51.098;13.716;2022-12-18T05:33:37;3.40;;;3.20;;
7557;SDS011;3820;51.098;13.716;2022-12-18T05:36:05;2.43;;;2.33;;
7557;SDS011;3820;51.098;13.716;2022-12-18T05:38:33;2.83;;;2.63;;
7557;SDS011;3820;51.098;13.716;2022-12-18T05:41:01;2.43;;;2.33;;
7557;SDS011;3820;51.098;13.716;2022-12-18T05:43:28;2.27;;;2.17;;
7557;SDS011;3820;51.098;13.716;2022-12-18T05:45:55;3.20;;;3.00;;
7557;SDS011;3820;51.098;13.716;2022-12-18T05:48:23;2.40;;;2.30;;
7557;SDS011;3820;51.098;13.716;2022-12-18T05:50:50;4.87;;;3.87;;
7557;SDS011;3820;51.098;13.716;2022-12-18T05:53:18;4.40;;;4.10;;
7557;SDS011;3820;51.098;13.716;2022-12-18T05:55:46;2.87;;;2.77;;
7557;SDS011;3820;51.098;13.716;2022-12-18T05:58:13;3.27;;;2.97;;
7557;SDS011;3820;51.098;13.716;2022-12-18T06:00:41;2.93;;;2.73;;
7557;SDS011;3820;51.098;13.716;2022-12-18T06:03:09;4.37;;;3.93;;
7557;SDS011;3820;51.098;13.716;2022-12-18T06:05:41;2.73;;;2.57;;
7557;SDS011;3820;51.098;13.716;2022-12-18T06:08:08;4.50;;;4.00;;
7557;SDS011;3820;51.098;13.716;2022-12-18T06:10:35;4.80;;;4.07;;
7557;SDS011;3820;51.098;13.716;2022-12-18T06:13:02;2.63;;;2.53;;
7557;SDS011;3820;51.098;13.716;2022-12-18T06:15:29;6.23;;;3.60;;
7557;SDS011;3820;51.098;13.716;2022-12-18T06:17:55;5.27;;;3.37;;
7557;SDS011;3820;51.098;13.716;2022-12-18T06:20:22;2.70;;;2.60;;
7557;SDS011;3820;51.098;13.716;2022-12-18T06:22:48;4.13;;;3.73;;
7557;SDS011;3820;51.098;13.716;2022-12-18T06:25:15;4.80;;;3.47;;
7557;SDS011;3820;51.098;13.716;2022-12-18T06:27:42;2.87;;;2.77;;
7557;SDS011;3820;51.098;13.716;2022-12-18T06:30:09;3.30;;;3.00;;
7557;SDS011;3820;51.098;13.716;2022-12-18T06:32:36;2.67;;;2.57;;
7557;SDS011;3820;51.098;13.716;2022-12-18T06:35:03;4.20;;;2.47;;
7557;SDS011;3820;51.098;13.716;2022-12-18T06:37:31;3.60;;;3.10;;
7557;SDS011;3820;51.098;13.716;2022-12-18T06:39:57;7.50;;;3.47;;
7557;SDS011;3820;51.098;13.716;2022-12-18T06:42:24;3.30;;;3.17;;
7557;SDS011;3820;51.098;13.716;2022-12-18T06:44:51;3.90;;;3.57;;
7557;SDS011;3820;51.098;13.716;2022-12-18T06:47:17;4.20;;;3.20;;
7557;SDS011;3820;51.098;13.716;2022-12-18T06:49:44;3.40;;;3.20;;
7557;SDS011;3820;51.098;13.716;2022-12-18T06:52:11;3.47;;;2.93;;
7557;SDS011;3820;51.098;13.716;2022-12-18T06:54:37;6.40;;;4.37;;
7557;SDS011;3820;51.098;13.716;2022-12-18T06:57:04;3.13;;;2.90;;
7557;SDS011;3820;51.098;13.716;2022-12-18T06:59:30;5.03;;;3.30;;
7557;SDS011;3820;51.098;13.716;2022-12-18T07:01:57;2.57;;;2.43;;
7557;SDS011;3820;51.098;13.716;2022-12-18T07:04:28;3.23;;;3.03;;
7557;SDS011;3820;51.098;13.716;2022-12-18T07:06:56;3.57;;;3.27;;
7557;SDS011;3820;51.098;13.716;2022-12-18T07:09:23;3.27;;;3.07;;
7557;SDS011;3820;51.098;13.716;2022-12-18T07:11:52;3.60;;;3.37;;
7557;SDS011;3820;51.098;13.716;2022-12-18T07:14:18;3.97;;;3.57;;
7557;SDS011;3820;51.098;13.716;2022-12-18T07:16:45;4.00;;;3.70;;
7557;SDS011;3820;51.098;13.716;2022-12-18T07:19:11;2.77;;;2.67;;
7557;SDS011;3820;51.098;13.716;2022-12-18T07:21:38;3.27;;;2.97;;
7557;SDS011;3820;51.098;13.716;2022-12-18T07:24:05;3.43;;;3.23;;
7557;SDS011;3820;51.098;13.716;2022-12-18T07:26:32;3.77;;;3.50;;
7557;SDS011;3820;51.098;13.716;2022-12-18T07:28:58;5.53;;;2.70;;
7557;SDS011;3820;51.098;13.716;2022-12-18T07:31:25;6.23;;;4.70;;
7557;SDS011;3820;51.098;13.716;2022-12-18T07:33:52;3.60;;;3.30;;
7557;SDS011;3820;51.098;13.716;2022-12-18T07:36:19;5.27;;;3.20;;
7557;SDS011;3820;51.098;13.716;2022-12-18T07:38:49;3.93;;;3.37;;
7557;SDS011;3820;51.098;13.716;2022-12-18T07:41:16;5.20;;;3.03;;
7557;SDS011;3820;51.098;13.716;2022-12-18T07:43:43;9.93;;;3.67;;
7557;SDS011;3820;51.098;13.716;2022-12-18T07:46:10;3.57;;;3.40;;
7557;SDS011;3820;51.098;13.716;2022-12-18T07:48:40;3.20;;;3.10;;
7557;SDS011;3820;51.098;13.716;2022-12-18T07:51:07;4.90;;;3.73;;
7557;SDS011;3820;51.098;13.716;2022-12-18T07:53:35;4.33;;;2.33;;
7557;SDS011;3820;51.098;13.716;2022-12-18T07:56:04;4.67;;;3.07;;
7557;SDS011;3820;51.098;13.716;2022-12-18T07:58:53;3.33;;;2.43;;
7557;SDS011;3820;51.098;13.716;2022-12-18T08:01:20;5.37;;;3.97;;
7557;SDS011;3820;51.098;13.716;2022-12-18T08:03:46;2.83;;;2.63;;
7557;SDS011;3820;51.098;13.716;2022-12-18T08:06:14;6.83;;;3.13;;
7557;SDS011;3820;51.098;13.716;2022-12-18T08:08:41;14.80;;;3.23;;
7557;SDS011;3820;51.098;13.716;2022-12-18T08:11:08;11.00;;;4.47;;
7557;SDS011;3820;51.098;13.716;2022-12-18T08:13:34;8.00;;;5.03;;
7557;SDS011;3820;51.098;13.716;2022-12-18T08:16:02;7.30;;;4.50;;
7557;SDS011;3820;51.098;13.716;2022-12-18T08:18:33;7.17;;;3.50;;
7557;SDS011;3820;51.098;13.716;2022-12-18T08:21:08;8.40;;;5.63;;
7557;SDS011;3820;51.098;13.716;2022-12-18T08:23:36;15.10;;;5.47;;
7557;SDS011;3820;51.098;13.716;2022-12-18T08:26:08;8.30;;;4.47;;
7557;SDS011;3820;51.098;13.716;2022-12-18T08:28:34;11.67;;;6.67;;
7557;SDS011;3820;51.098;13.716;2022-12-18T08:31:01;13.03;;;6.17;;
7557;SDS011;3820;51.098;13.716;2022-12-18T08:33:28;14.73;;;6.63;;
7557;SDS011;3820;51.098;13.716;2022-12-18T08:35:55;11.07;;;5.93;;
7557;SDS011;3820;51.098;13.716;2022-12-18T08:38:21;12.00;;;5.20;;
7557;SDS011;3820;51.098;13.716;2022-12-18T08:40:49;10.40;;;5.37;;
7557;SDS011;3820;51.098;13.716;2022-12-18T08:43:15;12.33;;;6.17;;
7557;SDS011;3820;51.098;13.716;2022-12-18T08:46:00;5.03;;;4.43;;
7557;SDS011;3820;51.098;13.716;2022-12-18T08:48:27;14.10;;;6.07;;
7557;SDS011;3820;51.098;13.716;2022-12-18T08:50:57;11.03;;;4.80;;
7557;SDS011;3820;51.098;13.716;2022-12-18T08:53:25;15.57;;;7.10;;
7557;SDS011;3820;51.098;13.716;2022-12-18T08:55:57;13.57;;;6.30;;
7557;SDS011;3820;51.098;13.716;2022-12-18T08:58:24;16.70;;;6.00;;
7557;SDS011;3820;51.098;13.716;2022-12-18T09:00:50;11.30;;;6.83;;
7557;SDS011;3820;51.098;13.716;2022-12-18T09:03:18;14.67;;;6.33;;
7557;SDS011;3820;51.098;13.716;2022-12-18T09:05:45;14.73;;;5.90;;
7557;SDS011;3820;51.098;13.716;2022-12-18T09:08:11;9.93;;;5.70;;
7557;SDS011;3820;51.098;13.716;2022-12-18T09:10:42;12.70;;;6.67;;
7557;SDS011;3820;51.098;13.716;2022-12-18T09:13:10;12.73;;;6.50;;
7557;SDS011;3820;51.098;13.716;2022-12-18T09:15:44;13.37;;;6.50;;
7557;SDS011;3820;51.098;13.716;2022-12-18T09:18:13;10.67;;;5.47;;
7557;SDS011;3820;51.098;13.716;2022-12-18T09:20:40;11.10;;;5.73;;
7557;SDS011;3820;51.098;13.716;2022-12-18T09:23:07;14.73;;;5.63;;
7557;SDS011;3820;51.098;13.716;2022-12-18T09:25:35;12.23;;;5.97;;
7557;SDS011;3820;51.098;13.716;2022-12-18T09:28:03;15.80;;;7.50;;
7557;SDS011;3820;51.098;13.716;2022-12-18T09:30:31;14.67;;;5.70;;
7557;SDS011;3820;51.098;13.716;2022-12-18T09:33:00;18.83;;;6.80;;
7557;SDS011;3820;51.098;13.716;2022-12-18T09:35:27;12.97;;;5.80;;
7557;SDS011;3820;51.098;13.716;2022-12-18T09:37:54;14.80;;;5.93;;
7557;SDS011;3820;51.098;13.716;2022-12-18T09:40:22;13.37;;;7.13;;
7557;SDS011;3820;51.098;13.716;2022-12-18T09:42:52;14.30;;;7.40;;
7557;SDS011;3820;51.098;13.716;2022-12-18T09:45:24;11.97;;;5.90;;
7557;SDS011;3820;51.098;13.716;2022-12-18T09:47:50;12.13;;;6.00;;
7557;SDS011;3820;51.098;13.716;2022-12-18T09:52:50;14.87;;;6.63;;
7557;SDS011;3820;51.098;13.716;2022-12-18T09:55:39;14.97;;;7.27;;
7557;SDS011;3820;51.098;13.716;2022-12-18T10:00:36;16.20;;;6.67;;
7557;SDS011;3820;51.098;13.716;2022-12-18T10:03:09;12.57;;;6.60;;
7557;SDS011;3820;51.098;13.716;2022-12-18T10:10:41;19.83;;;8.07;;
7557;SDS011;3820;51.098;13.716;2022-12-18T10:19:04;11.43;;;5.80;;
7557;SDS011;3820;51.098;13.716;2022-12-18T10:24:39;16.10;;;5.13;;
7557;SDS011;3820;51.098;13.716;2022-12-18T10:27:24;8.07;;;5.13;;
7557;SDS011;3820;51.098;13.716;2022-12-18T10:29:52;7.97;;;4.23;;
7557;SDS011;3820;51.098;13.716;2022-12-18T10:32:20;7.57;;;3.77;;
7557;SDS011;3820;51.098;13.716;2022-12-18T10:34:49;2.40;;;2.20;;
7557;SDS011;3820;51.098;13.716;2022-12-18T10:37:25;13.60;;;5.03;;
7557;SDS011;3820;51.098;13.716;2022-12-18T10:40:08;9.23;;;4.90;;
7557;SDS011;3820;51.098;13.716;2022-12-18T10:42:45;8.07;;;4.67;;
7557;SDS011;3820;51.098;13.716;2022-12-18T10:45:13;8.37;;;2.90;;
7557;SDS011;3820;51.098;13.716;2022-12-18T10:47:43;6.07;;;3.63;;
7557;SDS011;3820;51.098;13.716;2022-12-18T10:50:18;6.43;;;3.53;;
7557;SDS011;3820;51.098;13.716;2022-12-18T10:53:25;4.63;;;4.23;;
7557;SDS011;3820;51.098;13.716;2022-12-18T10:55:54;12.60;;;5.17;;
7557;SDS011;3820;51.098;13.716;2022-12-18T10:58:29;3.30;;;2.23;;
7557;SDS011;3820;51.098;13.716;2022-12-18T11:03:44;9.53;;;5.00;;
7557;SDS011;3820;51.098;13.716;2022-12-18T11:06:28;1.70;;;1.60;;
7557;SDS011;3820;51.098;13.716;2022-12-18T11:11:40;12.13;;;3.67;;
7557;SDS011;3820;51.098;13.716;2022-12-18T11:14:12;11.33;;;4.63;;
7557;SDS011;3820;51.098;13.716;2022-12-18T11:16:44;7.20;;;3.53;;
7557;SDS011;3820;51.098;13.716;2022-12-18T11:19:36;4.13;;;3.57;;
7557;SDS011;3820;51.098;13.716;2022-12-18T11:22:17;5.57;;;3.10;;
7557;SDS011;3820;51.098;13.716;2022-12-18T11:25:03;11.30;;;4.70;;
7557;SDS011;3820;51.098;13.716;2022-12-18T11:27:53;8.90;;;4.67;;
7557;SDS011;3820;51.098;13.716;2022-12-18T11:33:12;2.03;;;1.83;;
7557;SDS011;3820;51.098;13.716;2022-12-18T11:38:58;9.93;;;4.23;;
7557;SDS011;3820;51.098;13.716;2022-12-18T11:44:28;4.93;;;2.83;;
7557;SDS011;3820;51.098;13.716;2022-12-18T11:49:41;2.07;;;1.97;;
7557;SDS011;3820;51.098;13.716;2022-12-18T11:54:35;18.00;;;4.90;;
7557;SDS011;3820;51.098;13.716;2022-12-18T11:57:16;6.87;;;4.40;;
7557;SDS011;3820;51.098;13.716;2022-12-18T12:11:16;2.83;;;2.40;;
7557;SDS011;3820;51.098;13.716;2022-12-18T12:16:57;2.73;;;2.20;;
7557;SDS011;3820;51.098;13.716;2022-12-18T12:24:34;8.27;;;4.47;;
7557;SDS011;3820;51.098;13.716;2022-12-18T12:30:20;7.03;;;3.57;;
7557;SDS011;3820;51.098;13.716;2022-12-18T12:32:58;8.27;;;3.70;;
7557;SDS011;3820;51.098;13.716;2022-12-18T12:35:47;10.23;;;5.33;;
7557;SDS011;3820;51.098;13.716;2022-12-18T12:38:19;8.33;;;3.33;;
7557;SDS011;3820;51.098;13.716;2022-12-18T12:40:52;7.50;;;4.40;;
7557;SDS011;3820;51.098;13.716;2022-12-18T12:43:31;4.60;;;4.10;;
7557;SDS011;3820;51.098;13.716;2022-12-18T12:46:09;17.77;;;5.73;;
7557;SDS011;3820;51.098;13.716;2022-12-18T12:48:42;7.90;;;4.53;;
7557;SDS011;3820;51.098;13.716;2022-12-18T12:51:19;13.33;;;4.57;;
7557;SDS011;3820;51.098;13.716;2022-12-18T12:53:48;6.90;;;3.93;;
7557;SDS011;3820;51.098;13.716;2022-12-18T12:56:16;11.13;;;4.20;;
7557;SDS011;3820;51.098;13.716;2022-12-18T13:01:27;9.03;;;4.97;;
7557;SDS011;3820;51.098;13.716;2022-12-18T13:04:03;7.33;;;3.67;;
7557;SDS011;3820;51.098;13.716;2022-12-18T13:06:47;6.33;;;4.10;;
7557;SDS011;3820;51.098;13.716;2022-12-18T13:09:17;3.40;;;3.13;;
7557;SDS011;3820;51.098;13.716;2022-12-18T13:11:44;5.90;;;2.50;;
7557;SDS011;3820;51.098;13.716;2022-12-18T13:19:42;6.00;;;3.37;;
7557;SDS011;3820;51.098;13.716;2022-12-18T13:22:22;3.63;;;3.30;;
7557;SDS011;3820;51.098;13.716;2022-12-18T13:24:51;3.77;;;3.47;;
7557;SDS011;3820;51.098;13.716;2022-12-18T13:30:40;5.50;;;2.67;;
7557;SDS011;3820;51.098;13.716;2022-12-18T13:35:42;5.83;;;2.67;;
7557;SDS011;3820;51.098;13.716;2022-12-18T13:38:36;5.53;;;3.77;;
7557;SDS011;3820;51.098;13.716;2022-12-18T13:41:26;5.83;;;3.83;;
7557;SDS011;3820;51.098;13.716;2022-12-18T13:43:52;4.30;;;2.80;;
7557;SDS011;3820;51.098;13.716;2022-12-18T13:48:52;5.53;;;4.20;;
7557;SDS011;3820;51.098;13.716;2022-12-18T13:51:20;5.10;;;3.70;;
7557;SDS011;3820;51.098;13.716;2022-12-18T13:53:58;8.93;;;3.27;;
7557;SDS011;3820;51.098;13.716;2022-12-18T13:56:27;4.40;;;2.37;;
7557;SDS011;3820;51.098;13.716;2022-12-18T13:59:06;7.73;;;3.83;;
7557;SDS011;3820;51.098;13.716;2022-12-18T14:01:44;5.43;;;3.50;;
7557;SDS011;3820;51.098;13.716;2022-12-18T14:06:49;4.90;;;3.30;;
7557;SDS011;3820;51.098;13.716;2022-12-18T14:09:20;4.57;;;3.53;;
7557;SDS011;3820;51.098;13.716;2022-12-18T14:11:51;7.37;;;2.90;;
7557;SDS011;3820;51.098;13.716;2022-12-18T14:14:19;6.90;;;4.30;;
7557;SDS011;3820;51.098;13.716;2022-12-18T14:16:46;8.90;;;4.27;;
7557;SDS011;3820;51.098;13.716;2022-12-18T14:19:14;4.17;;;3.70;;
7557;SDS011;3820;51.098;13.716;2022-12-18T14:21:49;5.20;;;3.73;;
7557;SDS011;3820;51.098;13.716;2022-12-18T14:24:20;6.33;;;3.80;;
7557;SDS011;3820;51.098;13.716;2022-12-18T14:26:48;3.27;;;2.40;;
7557;SDS011;3820;51.098;13.716;2022-12-18T14:32:05;3.73;;;2.90;;
7557;SDS011;3820;51.098;13.716;2022-12-18T14:35:12;3.50;;;2.47;;
7557;SDS011;3820;51.098;13.716;2022-12-18T14:37:39;4.33;;;2.50;;
7557;SDS011;3820;51.098;13.716;2022-12-18T14:40:11;5.47;;;3.67;;
7557;SDS011;3820;51.098;13.716;2022-12-18T14:42:39;2.87;;;2.27;;
7557;SDS011;3820;51.098;13.716;2022-12-18T14:48:18;6.30;;;3.23;;
7557;SDS011;3820;51.098;13.716;2022-12-18T14:51:23;4.63;;;3.03;;
7557;SDS011;3820;51.098;13.716;2022-12-18T14:53:47;6.63;;;4.47;;
7557;SDS011;3820;51.098;13.716;2022-12-18T14:56:26;1.80;;;1.70;;
7557;SDS011;3820;51.098;13.716;2022-12-18T14:58:54;21.57;;;3.30;;
7557;SDS011;3820;51.098;13.716;2022-12-18T15:01:24;6.43;;;2.93;;
7557;SDS011;3820;51.098;13.716;2022-12-18T15:03:53;5.77;;;2.83;;
7557;SDS011;3820;51.098;13.716;2022-12-18T15:06:34;8.57;;;5.67;;
7557;SDS011;3820;51.098;13.716;2022-12-18T15:09:03;5.10;;;4.00;;
7557;SDS011;3820;51.098;13.716;2022-12-18T15:11:56;5.17;;;3.47;;
7557;SDS011;3820;51.098;13.716;2022-12-18T15:14:34;9.57;;;5.63;;
7557;SDS011;3820;51.098;13.716;2022-12-18T15:17:05;10.00;;;3.73;;
7557;SDS011;3820;51.098;13.716;2022-12-18T15:19:40;14.77;;;5.27;;
7557;SDS011;3820;51.098;13.716;2022-12-18T15:22:27;6.33;;;3.97;;
7557;SDS011;3820;51.098;13.716;2022-12-18T15:24:55;3.57;;;3.30;;
7557;SDS011;3820;51.098;13.716;2022-12-18T15:30:02;7.67;;;3.80;;
7557;SDS011;3820;51.098;13.716;2022-12-18T15:32:42;3.33;;;3.03;;
7557;SDS011;3820;51.098;13.716;2022-12-18T15:37:35;3.53;;;3.30;;
7557;SDS011;3820;51.098;13.716;2022-12-18T15:40:02;7.60;;;3.03;;
7557;SDS011;3820;51.098;13.716;2022-12-18T15:42:29;6.63;;;3.93;;
7557;SDS011;3820;51.098;13.716;2022-12-18T15:45:15;3.63;;;2.67;;
7557;SDS011;3820;51.098;13.716;2022-12-18T15:47:43;5.27;;;3.30;;
7557;SDS011;3820;51.098;13.716;2022-12-18T15:50:10;2.47;;;2.27;;
7557;SDS011;3820;51.098;13.716;2022-12-18T15:52:41;4.13;;;3.00;;
7557;SDS011;3820;51.098;13.716;2022-12-18T15:55:14;4.17;;;3.30;;
7557;SDS011;3820;51.098;13.716;2022-12-18T15:58:01;6.23;;;4.07;;
7557;SDS011;3820;51.098;13.716;2022-12-18T16:00:27;6.40;;;5.03;;
7557;SDS011;3820;51.098;13.716;2022-12-18T16:02:54;6.33;;;3.07;;
7557;SDS011;3820;51.098;13.716;2022-12-18T16:05:21;5.57;;;3.40;;
7557;SDS011;3820;51.098;13.716;2022-12-18T16:07:48;6.87;;;4.40;;
7557;SDS011;3820;51.098;13.716;2022-12-18T16:10:14;4.03;;;3.63;;
7557;SDS011;3820;51.098;13.716;2022-12-18T16:12:41;4.03;;;2.67;;
7557;SDS011;3820;51.098;13.716;2022-12-18T16:15:10;3.50;;;3.30;;
7557;SDS011;3820;51.098;13.716;2022-12-18T16:17:42;2.60;;;2.40;;
7557;SDS011;3820;51.098;13.716;2022-12-18T16:20:15;3.40;;;3.17;;
7557;SDS011;3820;51.098;13.716;2022-12-18T16:22:43;4.33;;;3.10;;
7557;SDS011;3820;51.098;13.716;2022-12-18T16:25:30;6.27;;;3.10;;
7557;SDS011;3820;51.098;13.716;2022-12-18T16:27:56;6.47;;;3.33;;
7557;SDS011;3820;51.098;13.716;2022-12-18T16:30:24;6.23;;;3.30;;
7557;SDS011;3820;51.098;13.716;2022-12-18T16:33:01;9.03;;;3.90;;
7557;SDS011;3820;51.098;13.716;2022-12-18T16:35:27;6.57;;;4.97;;
7557;SDS011;3820;51.098;13.716;2022-12-18T16:37:54;7.30;;;4.33;;
7557;SDS011;3820;51.098;13.716;2022-12-18T16:40:20;2.97;;;2.77;;
7557;SDS011;3820;51.098;13.716;2022-12-18T16:42:47;6.20;;;4.20;;
7557;SDS011;3820;51.098;13.716;2022-12-18T16:45:15;4.80;;;3.87;;
7557;SDS011;3820;51.098;13.716;2022-12-18T16:47:42;6.37;;;4.53;;
7557;SDS011;3820;51.098;13.716;2022-12-18T16:50:09;4.17;;;3.67;;
7557;SDS011;3820;51.098;13.716;2022-12-18T16:52:35;7.80;;;4.50;;
7557;SDS011;3820;51.098;13.716;2022-12-18T16:55:02;3.93;;;3.53;;
7557;SDS011;3820;51.098;13.716;2022-12-18T16:57:29;8.53;;;4.97;;
7557;SDS011;3820;51.098;13.716;2022-12-18T16:59:55;5.00;;;4.40;;
7557;SDS011;3820;51.098;13.716;2022-12-18T17:02:30;3.97;;;3.57;;
7557;SDS011;3820;51.098;13.716;2022-12-18T17:04:57;11.07;;;5.80;;
7557;SDS011;3820;51.098;13.716;2022-12-18T17:07:24;4.67;;;3.77;;
7557;SDS011;3820;51.098;13.716;2022-12-18T17:09:51;3.47;;;3.07;;
7557;SDS011;3820;51.098;13.716;2022-12-18T17:12:19;3.93;;;3.63;;
7557;SDS011;3820;51.098;13.716;2022-12-18T17:14:46;9.53;;;3.77;;